Time;durP1;ratioP1;P1;durP2;ratioP2;P2;SDS_P1;SDS_P2;PMS_P1;PMS_P2;Temp;Humidity;BMP_temperature;BMP_pressure;BME280_temperature;BME280_humidity;BME280_pressure;Samples;Min_cycle;Max_cycle;Signal;HPM_P1;HPM_P2
2022/05/30 00:02:27;;;;;;;;;;;8.90;97.10;;;;;;4987441;28;19936;-79
2022/05/30 00:04:55;;;;;;;;;;;8.90;97.40;;;;;;4980950;28;19926;-81
2022/05/30 00:07:22;;;;;;;;;;;8.80;97.20;;;;;;5003704;28;20162;-80
2022/05/30 00:09:50;;;;;;;;;;;9.00;97.40;;;;;;5004381;28;19930;-80
2022/05/30 00:12:17;;;;;;;;;;;8.80;97.30;;;;;;5003293;28;19929;-80
2022/05/30 00:14:45;;;;;;;;;;;8.70;97.30;;;;;;5016464;28;20353;-81
2022/05/30 00:17:13;;;;;;;;;;;8.70;97.40;;;;;;5023480;28;19929;-81
2022/05/30 00:19:41;;;;;;;;;;;8.60;97.40;;;;;;5006939;28;19940;-81
2022/05/30 00:22:14;;;;;;;;;;;8.60;97.60;;;;;;5029287;28;19936;-81
2022/05/30 00:24:43;;;;;;;;;;;8.60;97.60;;;;;;5022730;28;19926;-81
2022/05/30 00:27:11;;;;;;;;;;;8.50;97.60;;;;;;5006568;28;19943;-80
2022/05/30 00:29:39;;;;;;;;;;;8.60;97.50;;;;;;4995388;28;19925;-81
2022/05/30 00:32:07;;;;;;;;;;;8.50;98.10;;;;;;5008222;28;19930;-81
2022/05/30 00:34:36;;;;;;;;;;;8.50;97.70;;;;;;5007729;28;19931;-80
2022/05/30 00:37:04;;;;;;;;;;;8.50;97.80;;;;;;5024663;28;19955;-81
2022/05/30 00:39:32;;;;;;;;;;;8.50;97.90;;;;;;5007216;28;19937;-81
2022/05/30 00:42:19;;;;;;;;;;;8.40;98.10;;;;;;5024367;28;19925;-80
2022/05/30 00:44:50;;;;;;;;;;;8.40;97.90;;;;;;4996646;28;20173;-80
2022/05/30 00:47:19;;;;;;;;;;;8.40;98.20;;;;;;4988437;28;19930;-81
2022/05/30 00:49:48;;;;;;;;;;;8.40;98.10;;;;;;5008009;28;19929;-81
2022/05/30 00:52:19;;;;;;;;;;;7.20;97.60;;;;;;5016260;28;20549;-81
2022/05/30 00:54:52;;;;;;;;;;;8.40;98.30;;;;;;4970850;28;19932;-80
2022/05/30 00:57:22;;;;;;;;;;;8.40;98.10;;;;;;4988031;28;20156;-81
2022/05/30 00:59:54;;;;;;;;;;;8.30;98.30;;;;;;5004656;28;19940;-81
2022/05/30 01:02:23;;;;;;;;;;;8.00;98.10;;;;;;5005278;28;19937;-81
2022/05/30 01:07:41;;;;;;;;;;;8.40;98.60;;;;;;5024227;28;19933;-81
2022/05/30 01:10:15;;;;;;;;;;;7.60;98.40;;;;;;5006708;28;19925;-80
2022/05/30 01:12:49;;;;;;;;;;;8.50;98.60;;;;;;4989889;28;20125;-81
2022/05/30 01:15:28;;;;;;;;;;;8.50;99.00;;;;;;4976602;28;20243;-80
2022/05/30 01:18:01;;;;;;;;;;;8.50;99.00;;;;;;4971115;28;19941;-81
2022/05/30 01:20:41;;;;;;;;;;;8.60;98.70;;;;;;5006235;28;19926;-81
2022/05/30 01:23:29;;;;;;;;;;;8.70;98.70;;;;;;5001589;28;20315;-81
2022/05/30 01:26:02;;;;;;;;;;;8.70;98.70;;;;;;4965538;28;19926;-81
2022/05/30 01:28:43;;;;;;;;;;;8.70;98.60;;;;;;4987870;28;20763;-81
2022/05/30 01:31:11;;;;;;;;;;;8.70;98.80;;;;;;5005762;28;20354;-81
2022/05/30 01:33:39;;;;;;;;;;;8.80;98.60;;;;;;5001986;28;19940;-81
2022/05/30 01:36:08;;;;;;;;;;;8.80;98.80;;;;;;4988929;28;19925;-82
2022/05/30 01:38:36;;;;;;;;;;;8.80;98.60;;;;;;5006091;28;19925;-80
2022/05/30 01:41:08;;;;;;;;;;;8.80;98.50;;;;;;5006409;28;19940;-81
2022/05/30 01:43:37;;;;;;;;;;;8.60;98.80;;;;;;5005404;28;19926;-80
2022/05/30 01:46:10;;;;;;;;;;;8.70;98.80;;;;;;5007155;28;19940;-81
2022/05/30 01:48:46;;;;;;;;;;;8.70;98.80;;;;;;4992938;28;19930;-81
2022/05/30 01:51:15;;;;;;;;;;;8.70;98.80;;;;;;4992341;28;20374;-80
2022/05/30 01:53:46;;;;;;;;;;;8.60;98.80;;;;;;4990295;28;19941;-81
2022/05/30 01:56:20;;;;;;;;;;;8.50;98.90;;;;;;5007192;28;20280;-81
2022/05/30 01:58:50;;;;;;;;;;;8.50;99.00;;;;;;4973271;28;19937;-81
2022/05/30 02:01:38;;;;;;;;;;;8.40;99.40;;;;;;5009764;28;19936;-81
2022/05/30 02:04:06;;;;;;;;;;;8.40;99.10;;;;;;5014564;28;19940;-81
2022/05/30 02:06:35;;;;;;;;;;;8.50;99.40;;;;;;5006309;28;19925;-81
2022/05/30 02:09:04;;;;;;;;;;;8.30;99.30;;;;;;5021723;28;20405;-81
2022/05/30 02:11:33;;;;;;;;;;;8.30;99.40;;;;;;5005403;28;20131;-81
2022/05/30 02:14:21;;;;;;;;;;;8.20;99.40;;;;;;5009539;28;19925;-81
2022/05/30 02:17:01;;;;;;;;;;;8.10;99.50;;;;;;4989932;28;20294;-81
2022/05/30 02:19:32;;;;;;;;;;;8.10;99.60;;;;;;5022476;28;19925;-81
2022/05/30 02:22:06;;;;;;;;;;;8.00;99.90;;;;;;4995589;28;19926;-81
2022/05/30 02:24:33;;;;;;;;;;;8.00;99.90;;;;;;5005642;28;19925;-81
2022/05/30 02:27:02;;;;;;;;;;;7.90;99.90;;;;;;5005843;28;19929;-80
2022/05/30 02:29:29;;;;;;;;;;;7.90;99.90;;;;;;4989727;28;19933;-80
2022/05/30 02:31:59;;;;;;;;;;;7.90;99.90;;;;;;5003857;28;19925;-80
2022/05/30 02:37:19;;;;;;;;;;;7.80;99.90;;;;;;4989739;28;19936;-80
2022/05/30 02:39:48;;;;;;;;;;;7.80;99.90;;;;;;5006550;28;20309;-81
2022/05/30 02:42:54;;;;;;;;;;;7.80;99.90;;;;;;4965222;28;19926;-81
2022/05/30 02:45:25;;;;;;;;;;;7.90;99.90;;;;;;4981098;28;19933;-81
2022/05/30 02:47:53;;;;;;;;;;;7.80;99.90;;;;;;4979813;28;20200;-80
2022/05/30 02:50:22;;;;;;;;;;;7.80;99.90;;;;;;5005313;28;19932;-82
2022/05/30 02:52:50;;;;;;;;;;;7.90;99.90;;;;;;5006390;28;19945;-81
2022/05/30 02:55:24;;;;;;;;;;;7.90;99.90;;;;;;5002250;28;20029;-81
2022/05/30 02:57:53;;;;;;;;;;;7.80;99.90;;;;;;5002577;28;19930;-80
2022/05/30 03:00:26;;;;;;;;;;;7.90;99.90;;;;;;5002260;28;19930;-81
2022/05/30 03:02:58;;;;;;;;;;;7.90;99.90;;;;;;5005689;28;19925;-81
2022/05/30 03:05:26;;;;;;;;;;;8.10;99.90;;;;;;5017014;28;19952;-80
2022/05/30 03:07:54;;;;;;;;;;;7.90;99.90;;;;;;5005395;28;19926;-80
2022/05/30 03:10:42;;;;;;;;;;;8.00;99.90;;;;;;5035177;28;20031;-80
2022/05/30 03:13:09;;;;;;;;;;;8.00;99.90;;;;;;5038909;28;19929;-81
2022/05/30 03:15:38;;;;;;;;;;;8.00;99.90;;;;;;4976686;28;19933;-81
2022/05/30 03:18:06;;;;;;;;;;;8.00;99.90;;;;;;5005822;28;19935;-80
2022/05/30 03:20:34;;;;;;;;;;;8.00;99.90;;;;;;5005404;28;19932;-81
2022/05/30 03:23:03;;;;;;;;;;;8.00;99.90;;;;;;4969625;28;19926;-80
2022/05/30 03:25:58;;;;;;;;;;;8.10;99.90;;;;;;5004064;28;20426;-81
2022/05/30 03:28:31;;;;;;;;;;;8.10;99.90;;;;;;4987269;28;19936;-81
2022/05/30 03:31:02;;;;;;;;;;;8.40;99.90;;;;;;5022360;28;20120;-81
2022/05/30 03:33:36;;;;;;;;;;;8.10;99.90;;;;;;5008314;28;19936;-81
2022/05/30 03:36:17;;;;;;;;;;;8.10;99.90;;;;;;5008708;28;20133;-81
2022/05/30 03:39:04;;;;;;;;;;;8.10;99.90;;;;;;4995773;28;19933;-81
2022/05/30 03:41:50;;;;;;;;;;;8.20;99.90;;;;;;5027188;28;19929;-80
2022/05/30 03:44:45;;;;;;;;;;;8.00;99.90;;;;;;5001631;28;19929;-81
2022/05/30 03:47:18;;;;;;;;;;;7.90;99.90;;;;;;5026116;28;20406;-80
2022/05/30 03:50:01;;;;;;;;;;;7.90;99.90;;;;;;4993316;28;20094;-81
2022/05/30 03:52:32;;;;;;;;;;;7.80;99.90;;;;;;5029066;28;19930;-81
2022/05/30 03:55:02;;;;;;;;;;;7.70;99.90;;;;;;5001722;28;19933;-81
2022/05/30 03:57:29;;;;;;;;;;;7.70;99.90;;;;;;4989385;28;19926;-80
2022/05/30 03:59:57;;;;;;;;;;;7.70;99.90;;;;;;4990323;28;19933;-81
2022/05/30 04:02:25;;;;;;;;;;;7.60;99.90;;;;;;4989460;28;20445;-81
2022/05/30 04:04:53;;;;;;;;;;;7.70;99.90;;;;;;5001965;28;19932;-81
2022/05/30 04:07:22;;;;;;;;;;;7.60;99.90;;;;;;5030992;28;20370;-81
2022/05/30 04:10:08;;;;;;;;;;;7.60;99.90;;;;;;5016391;28;19949;-81
2022/05/30 04:13:04;;;;;;;;;;;7.50;99.90;;;;;;4994420;28;19925;-81
2022/05/30 04:16:11;;;;;;;;;;;7.50;99.90;;;;;;4995226;28;19926;-81
2022/05/30 04:18:42;;;;;;;;;;;7.50;99.90;;;;;;4993835;28;19932;-81
2022/05/30 04:21:11;;;;;;;;;;;6.40;99.90;;;;;;4992048;28;19926;-81
2022/05/30 04:23:42;;;;;;;;;;;7.50;99.90;;;;;;4640321;28;9999903;-80
2022/05/30 04:26:15;;;;;;;;;;;7.50;99.90;;;;;;4992292;28;19937;-81
2022/05/30 04:28:48;;;;;;;;;;;7.50;99.90;;;;;;4991353;28;20323;-82
2022/05/30 04:31:35;;;;;;;;;;;7.40;99.90;;;;;;4992759;28;19934;-80
2022/05/30 04:34:03;;;;;;;;;;;7.50;99.90;;;;;;5001137;28;19936;-80
2022/05/30 04:36:33;;;;;;;;;;;7.40;99.90;;;;;;5039839;28;19945;-81
2022/05/30 04:39:01;;;;;;;;;;;7.40;99.90;;;;;;5005365;28;19925;-81
2022/05/30 04:41:47;;;;;;;;;;;7.40;99.90;;;;;;5024440;28;19932;-81
2022/05/30 04:44:35;;;;;;;;;;;7.40;99.90;;;;;;5024531;28;19932;-82
2022/05/30 04:47:17;;;;;;;;;;;7.40;99.90;;;;;;5007700;28;19925;-80
2022/05/30 04:49:49;;;;;;;;;;;7.40;99.90;;;;;;5004903;28;19926;-80
2022/05/30 04:52:17;;;;;;;;;;;7.50;99.90;;;;;;5005752;28;19925;-81
2022/05/30 04:54:47;;;;;;;;;;;7.50;99.90;;;;;;5022659;28;19952;-80
2022/05/30 04:57:48;;;;;;;;;;;7.50;99.90;;;;;;5006661;28;19933;-81
2022/05/30 05:00:48;;;;;;;;;;;7.50;99.90;;;;;;4990858;28;19925;-81
2022/05/30 05:03:25;;;;;;;;;;;7.70;99.90;;;;;;4991124;28;19937;-81
2022/05/30 05:06:05;;;;;;;;;;;7.60;99.90;;;;;;4987004;28;19930;-81
2022/05/30 05:08:49;;;;;;;;;;;7.60;99.90;;;;;;4987238;28;19925;-81
2022/05/30 05:11:37;;;;;;;;;;;7.60;99.90;;;;;;5006162;28;19933;-81
2022/05/30 05:14:24;;;;;;;;;;;7.60;99.90;;;;;;5020494;28;19936;-81
2022/05/30 05:17:10;;;;;;;;;;;7.60;99.90;;;;;;5009044;28;19932;-80
2022/05/30 05:19:41;;;;;;;;;;;7.70;99.90;;;;;;4989936;28;19933;-81
2022/05/30 05:22:13;;;;;;;;;;;7.70;99.90;;;;;;5010745;28;19925;-81
2022/05/30 05:24:42;;;;;;;;;;;8.40;99.90;;;;;;4990257;28;19926;-80
2022/05/30 05:27:16;;;;;;;;;;;7.90;99.90;;;;;;4987198;28;19929;-81
2022/05/30 05:29:48;;;;;;;;;;;7.90;99.90;;;;;;4986175;28;19940;-80
2022/05/30 05:32:15;;;;;;;;;;;8.00;99.90;;;;;;4987025;28;20233;-81
2022/05/30 05:34:43;;;;;;;;;;;8.10;99.90;;;;;;4990529;28;19940;-81
2022/05/30 05:37:12;;;;;;;;;;;8.20;99.90;;;;;;4969911;28;19930;-81
2022/05/30 05:40:15;;;;;;;;;;;8.30;99.90;;;;;;5001442;28;19930;-80
2022/05/30 05:42:42;;;;;;;;;;;8.40;99.90;;;;;;4985635;28;20379;-81
2022/05/30 05:45:12;;;;;;;;;;;8.50;99.90;;;;;;4986376;28;19929;-81
2022/05/30 05:47:41;;;;;;;;;;;8.60;99.90;;;;;;4985950;28;20386;-81
2022/05/30 05:50:10;;;;;;;;;;;8.70;99.90;;;;;;4983641;28;19940;-81
2022/05/30 05:52:38;;;;;;;;;;;8.80;99.90;;;;;;5007376;28;19925;-81
2022/05/30 05:55:15;;;;;;;;;;;9.20;99.90;;;;;;4973400;28;19926;-81
2022/05/30 05:57:43;;;;;;;;;;;8.90;99.90;;;;;;4985647;28;20620;-81
2022/05/30 06:00:11;;;;;;;;;;;9.10;99.90;;;;;;4969707;28;19926;-81
2022/05/30 06:02:45;;;;;;;;;;;9.20;99.90;;;;;;4991348;28;20122;-80
2022/05/30 06:05:16;;;;;;;;;;;9.30;99.90;;;;;;5003395;28;20205;-81
2022/05/30 06:08:19;;;;;;;;;;;9.50;99.90;;;;;;4949572;29;19926;-80
2022/05/30 06:11:08;;;;;;;;;;;9.60;99.90;;;;;;5001182;28;19936;-81
2022/05/30 06:13:42;;;;;;;;;;;9.70;99.90;;;;;;4983764;28;19941;-80
2022/05/30 06:16:15;;;;;;;;;;;9.80;99.90;;;;;;4985994;28;19930;-82
2022/05/30 06:18:52;;;;;;;;;;;9.90;99.90;;;;;;4990622;28;19933;-82
2022/05/30 06:21:30;;;;;;;;;;;10.10;99.90;;;;;;5002789;28;19925;-82
2022/05/30 06:24:05;;;;;;;;;;;10.20;99.90;;;;;;5017281;28;19933;-82
2022/05/30 06:26:48;;;;;;;;;;;10.40;99.90;;;;;;5005820;28;19930;-82
2022/05/30 06:29:40;;;;;;;;;;;10.50;99.90;;;;;;5000122;28;19925;-82
2022/05/30 06:32:16;;;;;;;;;;;10.70;99.90;;;;;;4981945;28;19926;-82
2022/05/30 06:35:06;;;;;;;;;;;10.90;99.90;;;;;;5007059;28;20295;-82
2022/05/30 06:37:37;;;;;;;;;;;11.30;99.90;;;;;;5002013;28;19925;-81
2022/05/30 06:40:09;;;;;;;;;;;11.30;99.90;;;;;;5005041;28;19936;-81
2022/05/30 06:42:42;;;;;;;;;;;11.40;99.60;;;;;;5000860;28;19933;-81
2022/05/30 06:45:27;;;;;;;;;;;11.60;99.30;;;;;;5011038;28;19936;-81
2022/05/30 06:48:15;;;;;;;;;;;11.70;98.80;;;;;;5022302;28;19936;-81
2022/05/30 06:51:15;;;;;;;;;;;11.90;98.70;;;;;;5009898;28;19926;-81
2022/05/30 06:53:43;;;;;;;;;;;12.10;98.40;;;;;;4987688;28;19936;-81
2022/05/30 06:56:15;;;;;;;;;;;13.00;98.60;;;;;;5005419;28;19929;-81
2022/05/30 06:58:50;;;;;;;;;;;12.30;98.20;;;;;;5002539;28;19925;-81
2022/05/30 07:01:25;;;;;;;;;;;12.50;98.00;;;;;;4980341;28;20125;-81
2022/05/30 07:04:12;;;;;;;;;;;12.60;97.20;;;;;;5004022;28;19929;-81
2022/05/30 07:07:05;;;;;;;;;;;12.80;97.20;;;;;;4976616;28;19945;-81
2022/05/30 07:09:48;;;;;;;;;;;12.80;96.90;;;;;;4993393;28;19933;-81
2022/05/30 07:12:32;;;;;;;;;;;13.20;97.20;;;;;;5001087;28;19937;-81
2022/05/30 07:15:01;;;;;;;;;;;13.10;96.80;;;;;;5000464;28;19925;-80
2022/05/30 07:17:32;;;;;;;;;;;13.20;96.10;;;;;;5003659;28;19940;-81
2022/05/30 07:20:03;;;;;;;;;;;13.30;95.80;;;;;;5002693;28;19933;-81
2022/05/30 07:22:52;;;;;;;;;;;12.60;95.80;;;;;;5020307;28;19930;-82
2022/05/30 07:25:40;;;;;;;;;;;13.60;96.20;;;;;;5020017;28;19933;-81
2022/05/30 07:28:32;;;;;;;;;;;13.60;95.70;;;;;;5014578;28;19936;-80
2022/05/30 07:31:21;;;;;;;;;;;13.70;95.20;;;;;;5002967;28;19933;-81
2022/05/30 07:34:08;;;;;;;;;;;13.80;94.80;;;;;;5003422;28;19933;-81
2022/05/30 07:36:55;;;;;;;;;;;13.90;95.20;;;;;;5017767;28;19960;-81
2022/05/30 07:39:44;;;;;;;;;;;13.90;94.20;;;;;;5014171;28;19925;-81
2022/05/30 07:42:23;;;;;;;;;;;14.10;93.80;;;;;;5020495;28;19929;-81
2022/05/30 07:45:09;;;;;;;;;;;12.20;93.20;;;;;;5002738;28;19934;-81
2022/05/30 07:47:56;;;;;;;;;;;14.00;93.90;;;;;;5023477;28;19926;-81
2022/05/30 07:50:58;;;;;;;;;;;14.00;92.90;;;;;;4998499;28;19933;-76
2022/05/30 07:53:49;;;;;;;;;;;14.00;93.70;;;;;;5009384;28;19933;-80
2022/05/30 07:56:40;;;;;;;;;;;14.10;94.10;;;;;;5008630;28;19940;-80
2022/05/30 07:59:09;;;;;;;;;;;14.10;93.60;;;;;;4986020;28;19930;-80
2022/05/30 08:01:37;;;;;;;;;;;14.10;93.00;;;;;;4986825;28;20100;-81
2022/05/30 08:04:12;;;;;;;;;;;14.10;92.80;;;;;;4986037;28;19929;-80
2022/05/30 08:06:45;;;;;;;;;;;14.10;93.30;;;;;;5004667;28;19933;-79
2022/05/30 08:09:28;;;;;;;;;;;14.10;93.20;;;;;;5021001;28;19925;-80
2022/05/30 08:12:22;;;;;;;;;;;14.20;93.10;;;;;;4996565;28;19933;-81
2022/05/30 08:15:16;;;;;;;;;;;14.30;93.30;;;;;;5004754;28;19929;-81
2022/05/30 08:18:02;;;;;;;;;;;14.20;92.70;;;;;;5016441;28;19929;-81
2022/05/30 08:20:31;;;;;;;;;;;14.20;92.80;;;;;;4998459;28;19930;-79
2022/05/30 08:23:00;;;;;;;;;;;14.20;93.00;;;;;;5003197;28;19930;-81
2022/05/30 08:25:30;;;;;;;;;;;14.40;92.90;;;;;;5020293;28;19925;-80
2022/05/30 08:28:00;;;;;;;;;;;14.20;92.50;;;;;;5003277;28;19932;-81
2022/05/30 08:30:27;;;;;;;;;;;14.30;92.50;;;;;;5004707;28;19930;-80
2022/05/30 08:33:19;;;;;;;;;;;14.30;92.90;;;;;;5004559;28;19933;-82
2022/05/30 08:36:12;;;;;;;;;;;16.10;93.00;;;;;;5008587;28;19925;-80
2022/05/30 08:38:43;;;;;;;;;;;12.90;92.30;;;;;;5004770;28;19925;-80
2022/05/30 08:44:22;;;;;;;;;;;14.20;92.60;;;;;;5001816;28;19936;-81
2022/05/30 08:47:30;;;;;;;;;;;14.30;92.30;;;;;;4991811;28;19926;-80
2022/05/30 08:50:11;;;;;;;;;;;14.30;92.20;;;;;;4995674;28;19937;-81
2022/05/30 08:52:58;;;;;;;;;;;14.30;92.60;;;;;;5001761;28;19926;-81
2022/05/30 08:55:46;;;;;;;;;;;14.20;92.20;;;;;;5002833;28;19933;-81
2022/05/30 08:58:58;;;;;;;;;;;14.30;92.40;;;;;;4979543;28;19929;-81
2022/05/30 09:01:38;;;;;;;;;;;14.30;92.00;;;;;;4999324;28;19936;-80
2022/05/30 09:04:34;;;;;;;;;;;14.40;92.70;;;;;;5024028;28;19933;-81
2022/05/30 09:07:22;;;;;;;;;;;14.40;92.10;;;;;;4996569;28;19934;-80
2022/05/30 09:09:51;;;;;;;;;;;14.40;91.70;;;;;;4989869;28;19943;-81
2022/05/30 09:12:34;;;;;;;;;;;14.40;91.80;;;;;;5003204;28;20046;-80
2022/05/30 09:15:21;;;;;;;;;;;14.40;91.90;;;;;;5003123;28;19941;-81
2022/05/30 09:18:01;;;;;;;;;;;14.40;92.20;;;;;;4658497;28;10000041;-80
2022/05/30 09:20:33;;;;;;;;;;;12.70;91.30;;;;;;4987368;28;19934;-81
2022/05/30 09:23:05;;;;;;;;;;;14.60;91.90;;;;;;4984663;28;20050;-81
2022/05/30 09:26:00;;;;;;;;;;;14.60;91.80;;;;;;4991112;28;19930;-81
2022/05/30 09:28:47;;;;;;;;;;;14.60;91.30;;;;;;5004447;28;19932;-79
2022/05/30 09:31:39;;;;;;;;;;;14.70;90.90;;;;;;5015058;28;19934;-81
2022/05/30 09:34:28;;;;;;;;;;;14.80;91.00;;;;;;5003939;28;19940;-80
2022/05/30 09:37:43;;;;;;;;;;;14.80;91.10;;;;;;5002362;28;19932;-81
2022/05/30 09:40:43;;;;;;;;;;;14.90;90.50;;;;;;5012672;28;19936;-81
2022/05/30 09:43:56;;;;;;;;;;;15.00;90.90;;;;;;5013832;28;19933;-80
2022/05/30 09:46:38;;;;;;;;;;;15.10;90.70;;;;;;4977747;28;19926;-80
2022/05/30 09:49:09;;;;;;;;;;;15.10;90.70;;;;;;4979447;28;20410;-81
2022/05/30 09:51:43;;;;;;;;;;;15.20;90.60;;;;;;4981276;28;19926;-80
2022/05/30 09:54:38;;;;;;;;;;;15.30;90.10;;;;;;4980557;28;19949;-81
2022/05/30 09:57:13;;;;;;;;;;;15.10;89.80;;;;;;4995827;28;19926;-80
2022/05/30 10:00:19;;;;;;;;;;;15.00;89.60;;;;;;4999027;28;19930;-81
2022/05/30 10:03:07;;;;;;;;;;;15.10;90.20;;;;;;4996743;28;19934;-81
2022/05/30 10:05:46;;;;;;;;;;;15.10;90.20;;;;;;4996047;28;19933;-81
2022/05/30 10:08:40;;;;;;;;;;;15.20;90.30;;;;;;4995476;28;19932;-81
2022/05/30 10:11:34;;;;;;;;;;;15.30;89.80;;;;;;5012180;28;19930;-80
2022/05/30 10:14:40;;;;;;;;;;;14.50;89.80;;;;;;4998228;28;19940;-80
2022/05/30 10:17:26;;;;;;;;;;;15.60;88.90;;;;;;4971289;28;19937;-80
2022/05/30 10:19:56;;;;;;;;;;;14.90;88.60;;;;;;5013458;28;19930;-80
2022/05/30 10:30:04;;;;;;;;;;;16.10;87.60;;;;;;4994223;28;19934;-80
2022/05/30 10:33:07;;;;;;;;;;;16.20;86.20;;;;;;4996700;28;20021;-84
2022/05/30 10:36:03;;;;;;;;;;;16.40;86.60;;;;;;5012702;28;20021;-81
2022/05/30 10:38:51;;;;;;;;;;;16.40;85.80;;;;;;4997755;28;19929;-81
2022/05/30 10:41:33;;;;;;;;;;;16.60;86.30;;;;;;4997556;28;19930;-81
2022/05/30 10:44:21;;;;;;;;;;;16.90;86.40;;;;;;4997417;28;19930;-81
2022/05/30 10:46:54;;;;;;;;;;;16.90;85.80;;;;;;4982397;28;20947;-81
2022/05/30 10:49:35;;;;;;;;;;;17.10;84.60;;;;;;4982085;28;19933;-81
2022/05/30 10:52:05;;;;;;;;;;;17.20;84.30;;;;;;4995226;28;19925;-81
2022/05/30 10:55:12;;;;;;;;;;;17.20;84.70;;;;;;4994283;28;19945;-86
2022/05/30 10:58:00;;;;;;;;;;;17.40;83.40;;;;;;4996846;28;19926;-77
2022/05/30 11:00:45;;;;;;;;;;;17.60;84.10;;;;;;5013575;28;19926;-81
2022/05/30 11:03:15;;;;;;;;;;;17.80;83.10;;;;;;4965392;28;19926;-82
2022/05/30 11:06:05;;;;;;;;;;;17.80;82.60;;;;;;4981329;28;19956;-81
2022/05/30 11:08:59;;;;;;;;;;;17.80;82.80;;;;;;4997040;28;20152;-81
2022/05/30 11:11:33;;;;;;;;;;;18.10;80.00;;;;;;4997640;28;20128;-81
2022/05/30 11:14:26;;;;;;;;;;;18.00;81.90;;;;;;5012594;28;20195;-82
2022/05/30 11:17:24;;;;;;;;;;;18.90;82.60;;;;;;4994263;28;19936;-81
2022/05/30 11:20:11;;;;;;;;;;;18.30;81.30;;;;;;4993197;28;19926;-82
2022/05/30 11:22:48;;;;;;;;;;;18.10;81.70;;;;;;4989526;28;19925;-81
2022/05/30 11:25:20;;;;;;;;;;;18.40;81.70;;;;;;4992815;28;19926;-81
2022/05/30 11:27:51;;;;;;;;;;;18.20;81.30;;;;;;4991183;28;19937;-81
2022/05/30 11:30:30;;;;;;;;;;;18.20;81.30;;;;;;4990737;28;19933;-82
2022/05/30 11:33:35;;;;;;;;;;;19.00;82.10;;;;;;4980934;28;19933;-81
2022/05/30 11:36:15;;;;;;;;;;;18.60;80.40;;;;;;4924110;28;20442;-82
2022/05/30 11:38:49;;;;;;;;;;;18.90;79.50;;;;;;4992301;28;19934;-82
2022/05/30 11:41:23;;;;;;;;;;;19.00;79.10;;;;;;5008502;28;20010;-81
2022/05/30 11:43:54;;;;;;;;;;;19.00;77.90;;;;;;5005326;28;19926;-81
2022/05/30 11:46:41;;;;;;;;;;;18.90;78.10;;;;;;5011595;28;19933;-81
2022/05/30 11:49:25;;;;;;;;;;;20.50;78.80;;;;;;4997245;28;19930;-81
2022/05/30 11:51:54;;;;;;;;;;;18.70;78.10;;;;;;4999082;28;19937;-81
2022/05/30 11:54:25;;;;;;;;;;;18.70;79.50;;;;;;4998743;28;19932;-81
2022/05/30 11:57:05;;;;;;;;;;;18.20;79.70;;;;;;4999793;28;19964;-81
2022/05/30 11:59:43;;;;;;;;;;;17.90;78.60;;;;;;5002123;28;19934;-81
2022/05/30 12:02:22;;;;;;;;;;;17.60;78.30;;;;;;5019302;28;19940;-81
2022/05/30 12:05:16;;;;;;;;;;;17.40;79.60;;;;;;4985536;28;19929;-81
2022/05/30 12:07:59;;;;;;;;;;;18.20;80.50;;;;;;5009364;28;19933;-81
2022/05/30 12:10:35;;;;;;;;;;;16.90;80.20;;;;;;5000010;28;19940;-81
2022/05/30 12:13:04;;;;;;;;;;;16.60;80.60;;;;;;5003188;28;19929;-81
2022/05/30 12:15:32;;;;;;;;;;;16.80;81.20;;;;;;5021528;28;19932;-81
2022/05/30 12:24:04;;;;;;;;;;;15.80;81.10;;;;;;5001770;28;19933;-81
2022/05/30 12:26:54;;;;;;;;;;;16.30;81.60;;;;;;5004108;28;19932;-81
2022/05/30 12:29:37;;;;;;;;;;;14.90;83.90;;;;;;5001680;28;19930;-81
2022/05/30 12:32:21;;;;;;;;;;;15.80;87.40;;;;;;5016452;28;19929;-81
2022/05/30 12:35:21;;;;;;;;;;;15.30;88.90;;;;;;5019536;28;19937;-80
2022/05/30 12:37:51;;;;;;;;;;;16.20;90.50;;;;;;4987259;28;19926;-81
2022/05/30 12:40:25;;;;;;;;;;;14.40;90.90;;;;;;5004716;28;19941;-81
2022/05/30 12:43:02;;;;;;;;;;;14.20;91.70;;;;;;5019333;28;20348;-82
2022/05/30 12:45:42;;;;;;;;;;;13.90;92.10;;;;;;5019004;28;19925;-81
2022/05/30 12:48:33;;;;;;;;;;;15.40;92.90;;;;;;4989574;28;19932;-81
2022/05/30 12:51:00;;;;;;;;;;;13.60;92.70;;;;;;5002783;28;19936;-81
2022/05/30 12:53:47;;;;;;;;;;;13.60;93.20;;;;;;5002448;28;19926;-81
2022/05/30 12:56:35;;;;;;;;;;;13.50;93.20;;;;;;5011921;28;19933;-80
2022/05/30 12:59:08;;;;;;;;;;;13.50;93.50;;;;;;5015673;28;19925;-81
2022/05/30 13:01:40;;;;;;;;;;;14.00;93.70;;;;;;4997941;28;19934;-81
2022/05/30 13:04:08;;;;;;;;;;;13.40;94.20;;;;;;5014589;28;19929;-81
2022/05/30 13:06:52;;;;;;;;;;;13.40;93.60;;;;;;4997493;28;19940;-81
2022/05/30 13:09:26;;;;;;;;;;;13.20;93.30;;;;;;5012667;28;19934;-82
2022/05/30 13:11:53;;;;;;;;;;;13.40;93.30;;;;;;5013052;28;19926;-82
2022/05/30 13:14:36;;;;;;;;;;;13.40;93.80;;;;;;5012950;28;19932;-82
2022/05/30 13:17:24;;;;;;;;;;;13.50;93.20;;;;;;5013876;28;19934;-82
2022/05/30 13:20:00;;;;;;;;;;;14.00;93.20;;;;;;4996989;28;19925;-82
2022/05/30 13:22:32;;;;;;;;;;;13.60;93.30;;;;;;5012569;28;19929;-82
2022/05/30 13:25:01;;;;;;;;;;;13.60;93.40;;;;;;5014226;28;19940;-80
2022/05/30 13:27:32;;;;;;;;;;;13.70;93.50;;;;;;5013894;28;19934;-82
2022/05/30 13:30:04;;;;;;;;;;;13.70;94.10;;;;;;4979091;28;19936;-81
2022/05/30 13:32:33;;;;;;;;;;;13.80;93.50;;;;;;5011963;28;20895;-82
2022/05/30 13:35:10;;;;;;;;;;;13.80;94.00;;;;;;4978433;28;19933;-81
2022/05/30 13:37:43;;;;;;;;;;;14.10;94.00;;;;;;4995780;28;19940;-82
2022/05/30 13:40:16;;;;;;;;;;;14.10;93.90;;;;;;4970697;28;19945;-82
2022/05/30 13:42:53;;;;;;;;;;;14.40;93.50;;;;;;4996914;28;19929;-82
2022/05/30 13:45:30;;;;;;;;;;;14.30;94.50;;;;;;4996092;28;19934;-82
2022/05/30 13:48:33;;;;;;;;;;;;;;;;;;;;;
2022/05/30 13:51:56;;;;;;;;;;;14.50;93.70;;;;;;4973280;28;19933;-79
2022/05/30 13:54:28;;;;;;;;;;;14.40;92.30;;;;;;5015406;28;19929;-81
2022/05/30 13:57:01;;;;;;;;;;;14.60;92.30;;;;;;5016854;28;19940;-81
2022/05/30 13:59:52;;;;;;;;;;;14.80;91.80;;;;;;4995341;28;19952;-81
2022/05/30 14:02:46;;;;;;;;;;;14.90;91.60;;;;;;4997594;28;19933;-82
2022/05/30 14:05:38;;;;;;;;;;;15.00;91.60;;;;;;4981673;28;20508;-81
2022/05/30 14:08:11;;;;;;;;;;;14.90;91.40;;;;;;5008937;28;19934;-82
2022/05/30 14:10:47;;;;;;;;;;;15.20;92.00;;;;;;5014210;28;19941;-82
2022/05/30 14:13:38;;;;;;;;;;;15.20;92.10;;;;;;4648394;28;10000415;-82
2022/05/30 14:16:29;;;;;;;;;;;15.20;91.60;;;;;;4970548;28;19933;-82
2022/05/30 14:19:10;;;;;;;;;;;15.30;91.80;;;;;;5013965;28;19933;-82
2022/05/30 14:21:48;;;;;;;;;;;15.80;91.10;;;;;;4994522;28;19941;-82
2022/05/30 14:24:25;;;;;;;;;;;15.70;90.90;;;;;;4995093;28;20292;-81
2022/05/30 14:26:54;;;;;;;;;;;15.70;90.20;;;;;;4994897;28;20205;-77
2022/05/30 14:32:37;;;;;;;;;;;15.80;89.30;;;;;;4975629;28;19932;-83
2022/05/30 14:35:19;;;;;;;;;;;15.90;89.70;;;;;;5012530;28;19933;-84
2022/05/30 14:38:36;;;;;;;;;;;16.00;89.20;;;;;;4995208;28;19933;-83
2022/05/30 14:41:20;;;;;;;;;;;16.30;89.80;;;;;;5000704;28;19933;-83
2022/05/30 14:43:54;;;;;;;;;;;16.50;88.20;;;;;;4997072;28;19934;-83
2022/05/30 14:46:35;;;;;;;;;;;16.70;87.90;;;;;;4995747;28;19941;-83
2022/05/30 14:49:51;;;;;;;;;;;16.80;87.10;;;;;;4997385;28;19926;-83
2022/05/30 14:52:37;;;;;;;;;;;17.00;87.50;;;;;;4996563;28;20521;-83
2022/05/30 14:55:15;;;;;;;;;;;16.80;87.90;;;;;;4987086;28;19925;-78
2022/05/30 14:57:53;;;;;;;;;;;16.80;88.00;;;;;;5002635;28;20376;-80
2022/05/30 15:00:40;;;;;;;;;;;16.70;87.90;;;;;;5000314;28;19933;-80
2022/05/30 15:06:27;;;;;;;;;;;16.00;87.60;;;;;;5013368;28;19929;-82
2022/05/30 15:08:56;;;;;;;;;;;16.50;88.20;;;;;;4979700;28;19934;-82
2022/05/30 15:12:01;;;;;;;;;;;16.40;88.30;;;;;;4981467;28;20342;-83
2022/05/30 15:14:39;;;;;;;;;;;15.40;87.30;;;;;;4980374;28;19940;-83
2022/05/30 15:17:11;;;;;;;;;;;16.20;88.00;;;;;;5012017;28;19945;-82
2022/05/30 15:19:53;;;;;;;;;;;16.20;89.90;;;;;;4995118;28;19944;-82
2022/05/30 15:22:25;;;;;;;;;;;16.30;87.40;;;;;;4996184;28;19934;-87
2022/05/30 15:24:57;;;;;;;;;;;16.30;87.30;;;;;;5014520;28;19929;-83
2022/05/30 15:27:58;;;;;;;;;;;17.00;87.80;;;;;;5017694;28;19935;-83
2022/05/30 15:30:30;;;;;;;;;;;16.10;87.60;;;;;;5018782;28;19934;-82
2022/05/30 15:32:59;;;;;;;;;;;16.30;88.80;;;;;;5008079;28;20252;-83
2022/05/30 15:35:27;;;;;;;;;;;16.10;87.40;;;;;;5005050;28;19937;-82
2022/05/30 15:38:03;;;;;;;;;;;16.00;90.00;;;;;;5003823;28;19929;-82
2022/05/30 15:41:03;;;;;;;;;;;16.40;87.90;;;;;;5006835;28;19956;-83
2022/05/30 15:43:46;;;;;;;;;;;16.30;88.50;;;;;;5004396;28;19925;-82
2022/05/30 15:46:19;;;;;;;;;;;16.50;88.90;;;;;;4999389;28;19940;-81
2022/05/30 15:48:47;;;;;;;;;;;16.30;87.40;;;;;;4986102;28;19934;-82
2022/05/30 15:51:36;;;;;;;;;;;16.30;88.20;;;;;;5001490;28;19945;-82
2022/05/30 15:57:29;;;;;;;;;;;16.30;84.30;;;;;;5002394;28;19940;-84
2022/05/30 16:00:30;;;;;;;;;;;16.50;84.50;;;;;;5000252;28;19929;-85
2022/05/30 16:03:34;;;;;;;;;;;16.30;86.00;;;;;;5002683;28;19929;-84
2022/05/30 16:06:47;;;;;;;;;;;16.00;85.30;;;;;;4999370;28;19930;-83